Terminal Aerodrome Forecast
Issued by NWS

Home | Current Version | Previous Version | Text Only | Print | Product List | Glossary On
Versions: 1 2 3 4 5 6 7 8 9 10 11 12 13 14 15 16 17 18 19
000
FTUS43 KDDC 221100
TAFGCK
TAF
KGCK 221134Z 2212/2312 VRB06KT P6SM FEW250
     FM221500 16012G22KT P6SM SCT250
     FM221900 17022G32KT P6SM SCT250
     FM230200 15016G26KT P6SM BKN200=

USA.gov is the U.S. government's official web portal to all federal, state and local government web resources and services.